createdAt,value
2022-11-18T00:01:24.903Z,3.15
2022-11-18T00:02:58.038Z,2.10
2022-11-18T00:04:31.123Z,2.50
2022-11-18T00:06:05.743Z,3.60
2022-11-18T00:07:38.918Z,3.30
2022-11-18T00:09:12.131Z,2.15
2022-11-18T00:10:44.295Z,1.27
2022-11-18T00:12:35.140Z,1.17
2022-11-18T00:14:20.560Z,2.75
2022-11-18T00:16:03.078Z,2.47
2022-11-18T00:17:36.232Z,1.08
2022-11-18T00:19:08.410Z,3.47
2022-11-18T00:20:41.505Z,1.63
2022-11-18T00:22:14.881Z,1.10
2022-11-18T00:23:49.110Z,1.08
2022-11-18T00:25:22.421Z,2.78
2022-11-18T00:26:56.652Z,0.70
2022-11-18T00:28:28.868Z,1.50
2022-11-18T00:30:02.162Z,2.85
2022-11-18T00:31:36.666Z,1.95
2022-11-18T00:33:09.826Z,2.65
2022-11-18T00:34:43.518Z,3.33
2022-11-18T00:36:15.726Z,3.08
2022-11-18T00:37:49.001Z,3.20
2022-11-18T00:39:22.801Z,1.38
2022-11-18T00:41:02.706Z,1.60
2022-11-18T00:42:54.009Z,2.55
2022-11-18T00:44:26.620Z,3.20
2022-11-18T00:45:59.863Z,3.67
2022-11-18T00:47:33.365Z,1.35
2022-11-18T00:49:06.772Z,2.72
2022-11-18T00:50:45.821Z,4.25
2022-11-18T00:52:20.673Z,4.22
2022-11-18T00:53:54.760Z,4.22
2022-11-18T00:55:29.230Z,2.78
2022-11-18T00:57:04.029Z,5.28
2022-11-18T00:58:38.037Z,6.93
2022-11-18T01:00:12.253Z,5.93
2022-11-18T01:01:45.699Z,4.90
2022-11-18T01:03:20.372Z,6.05
2022-11-18T01:04:53.531Z,4.88
2022-11-18T01:06:26.942Z,4.93
2022-11-18T01:08:01.605Z,6.45
2022-11-18T01:09:34.880Z,7.60
2022-11-18T01:11:22.604Z,7.82
2022-11-18T01:13:13.201Z,6.28
2022-11-18T01:14:46.641Z,5.45
2022-11-18T01:16:21.485Z,7.25
2022-11-18T01:17:54.703Z,6.22
2022-11-18T01:19:29.296Z,6.00
2022-11-18T01:21:06.316Z,5.72
2022-11-18T01:22:39.496Z,7.70
2022-11-18T01:24:12.876Z,5.63
2022-11-18T01:25:49.536Z,6.88
2022-11-18T01:27:22.691Z,7.57
2022-11-18T01:28:56.787Z,8.77
2022-11-18T01:30:30.065Z,5.40
2022-11-18T01:32:24.353Z,7.45
2022-11-18T01:33:57.565Z,7.75
2022-11-18T01:35:36.286Z,7.10
2022-11-18T01:37:08.625Z,6.10
2022-11-18T01:38:41.902Z,6.03
2022-11-18T01:40:15.490Z,7.55
2022-11-18T01:41:48.845Z,8.55
2022-11-18T01:43:25.541Z,8.90
2022-11-18T01:45:09.251Z,6.95
2022-11-18T01:46:42.397Z,9.02
2022-11-18T01:48:21.992Z,7.68
2022-11-18T01:49:54.644Z,7.88
2022-11-18T01:51:35.678Z,8.60
2022-11-18T01:53:14.823Z,9.50
2022-11-18T01:54:55.315Z,9.48
2022-11-18T01:56:38.421Z,6.82
2022-11-18T01:58:19.257Z,5.88
2022-11-18T01:59:59.986Z,6.82
2022-11-18T02:01:33.969Z,7.78
2022-11-18T02:03:08.412Z,10.05
2022-11-18T02:04:46.686Z,7.68
2022-11-18T02:06:20.879Z,7.57
2022-11-18T02:07:56.286Z,6.63
2022-11-18T02:09:29.545Z,7.95
2022-11-18T02:11:03.042Z,7.22
2022-11-18T02:12:37.297Z,7.07
2022-11-18T02:14:11.808Z,7.53
2022-11-18T02:15:55.366Z,4.85
2022-11-18T02:17:45.587Z,4.43
2022-11-18T02:19:51.941Z,4.47
2022-11-18T02:21:50.861Z,4.47
2022-11-18T02:24:10.944Z,5.97
2022-11-18T02:26:07.016Z,4.72
2022-11-18T02:28:33.087Z,5.95
2022-11-18T02:30:10.059Z,7.40
2022-11-18T02:31:53.290Z,6.25
2022-11-18T02:33:37.507Z,4.35
2022-11-18T02:35:20.927Z,6.35
2022-11-18T02:37:00.123Z,4.05
2022-11-18T02:38:41.143Z,5.00
2022-11-18T02:40:20.809Z,3.97
2022-11-18T02:41:57.741Z,4.95
2022-11-18T02:43:36.699Z,3.08
2022-11-18T02:45:18.159Z,7.68
2022-11-18T02:47:00.065Z,4.22
2022-11-18T02:48:38.877Z,3.50
2022-11-18T02:50:16.889Z,3.28
2022-11-18T02:51:52.505Z,5.75
2022-11-18T02:53:31.005Z,3.67
2022-11-18T02:55:08.159Z,3.35
2022-11-18T02:56:42.382Z,4.97
2022-11-18T02:58:20.370Z,4.32
2022-11-18T02:59:52.696Z,3.20
2022-11-18T03:01:31.169Z,2.72
2022-11-18T03:03:27.573Z,3.45
2022-11-18T03:05:00.787Z,3.55
2022-11-18T03:06:38.792Z,3.67
2022-11-18T03:08:20.713Z,3.60
2022-11-18T03:09:55.128Z,3.90
2022-11-18T03:11:31.029Z,2.88
2022-11-18T03:13:12.632Z,3.45
2022-11-18T03:15:00.201Z,2.45
2022-11-18T03:16:42.924Z,2.75
2022-11-18T03:18:28.822Z,5.32
2022-11-18T03:20:18.932Z,3.95
2022-11-18T03:22:08.176Z,3.45
2022-11-18T03:23:49.627Z,2.10
2022-11-18T03:25:32.276Z,2.55
2022-11-18T03:27:14.061Z,4.13
2022-11-18T03:29:00.488Z,2.03
2022-11-18T03:30:38.613Z,5.45
2022-11-18T03:32:18.370Z,2.35
2022-11-18T03:33:58.633Z,2.85
2022-11-18T03:35:36.106Z,3.97
2022-11-18T03:37:13.913Z,2.03
2022-11-18T03:38:53.113Z,3.40
2022-11-18T03:40:32.440Z,2.60
2022-11-18T03:42:13.882Z,2.25
2022-11-18T03:43:54.442Z,3.25
2022-11-18T03:45:33.816Z,3.17
2022-11-18T03:47:15.742Z,1.35
2022-11-18T03:48:53.080Z,2.17
2022-11-18T03:50:32.864Z,2.08
2022-11-18T03:52:12.944Z,1.75
2022-11-18T03:53:53.218Z,1.38
2022-11-18T03:55:32.502Z,1.50
2022-11-18T03:57:13.147Z,1.80
2022-11-18T03:58:54.385Z,2.17
2022-11-18T04:00:33.648Z,2.67
2022-11-18T04:02:13.171Z,2.80
2022-11-18T04:03:48.444Z,2.05
2022-11-18T04:05:21.944Z,1.92
2022-11-18T04:07:06.063Z,1.50
2022-11-18T04:08:43.327Z,1.48
2022-11-18T04:10:21.410Z,3.67
2022-11-18T04:12:03.919Z,1.90
2022-11-18T04:13:39.121Z,2.50
2022-11-18T04:15:12.306Z,1.83
2022-11-18T04:16:46.478Z,2.20
2022-11-18T04:18:20.022Z,1.45
2022-11-18T04:19:54.333Z,2.33
2022-11-18T04:21:27.523Z,2.63
2022-11-18T04:23:00.886Z,2.80
2022-11-18T04:24:33.117Z,2.00
2022-11-18T04:26:06.416Z,2.85
2022-11-18T04:27:39.936Z,2.13
2022-11-18T04:29:13.070Z,2.88
2022-11-18T04:30:46.266Z,1.88
2022-11-18T04:32:19.392Z,1.52
2022-11-18T04:33:52.856Z,1.98
2022-11-18T04:35:27.941Z,2.42
2022-11-18T04:37:00.305Z,2.65
2022-11-18T04:38:33.349Z,2.05
2022-11-18T04:40:08.527Z,2.20
2022-11-18T04:41:55.935Z,2.40
2022-11-18T04:43:29.094Z,1.58
2022-11-18T04:45:02.581Z,2.30
2022-11-18T04:46:34.809Z,2.30
2022-11-18T04:48:08.326Z,3.58
2022-11-18T04:49:41.811Z,2.50
2022-11-18T04:51:15.427Z,3.03
2022-11-18T04:52:48.513Z,2.75
2022-11-18T04:54:21.764Z,1.88
2022-11-18T04:55:55.101Z,1.35
2022-11-18T04:57:28.287Z,2.25
2022-11-18T04:59:01.329Z,3.53
2022-11-18T05:00:34.602Z,1.88
2022-11-18T05:02:08.375Z,2.72
2022-11-18T05:03:45.095Z,2.92
2022-11-18T05:05:20.866Z,2.28
2022-11-18T05:06:55.622Z,2.67
2022-11-18T05:10:02.280Z,1.75
2022-11-18T05:12:06.265Z,3.30
2022-11-18T05:13:38.760Z,1.63
2022-11-18T05:15:12.049Z,2.03
2022-11-18T05:16:44.723Z,2.33
2022-11-18T05:18:17.881Z,3.83
2022-11-18T05:19:50.057Z,4.13
2022-11-18T05:21:23.204Z,3.95
2022-11-18T05:22:57.775Z,3.03
2022-11-18T05:24:30.022Z,2.25
2022-11-18T05:26:04.901Z,3.70
2022-11-18T05:27:38.260Z,3.45
2022-11-18T05:29:11.701Z,3.10
2022-11-18T05:30:44.830Z,3.80
2022-11-18T05:32:18.201Z,3.83
2022-11-18T05:33:50.401Z,3.53
2022-11-18T05:35:23.558Z,2.55
2022-11-18T05:36:57.474Z,3.28
2022-11-18T05:38:32.803Z,3.22
2022-11-18T05:40:07.979Z,1.90
2022-11-18T05:41:58.574Z,1.77
2022-11-18T05:43:33.871Z,2.30
2022-11-18T05:45:08.009Z,1.83
2022-11-18T05:46:41.130Z,2.85
2022-11-18T05:48:13.279Z,3.05
2022-11-18T05:49:46.649Z,3.85
2022-11-18T05:51:18.980Z,1.63
2022-11-18T05:52:52.245Z,1.75
2022-11-18T05:54:27.591Z,1.80
2022-11-18T05:56:08.751Z,4.40
2022-11-18T05:57:41.908Z,2.47
2022-11-18T05:59:16.065Z,1.58
2022-11-18T06:00:53.317Z,6.15
2022-11-18T06:02:26.586Z,2.05
2022-11-18T06:04:03.894Z,2.40
2022-11-18T06:05:37.254Z,3.67
2022-11-18T06:07:15.638Z,1.52
2022-11-18T06:08:56.426Z,2.78
2022-11-18T06:12:09.880Z,2.05
2022-11-18T06:15:27.343Z,1.70
2022-11-18T06:17:06.722Z,1.80
2022-11-18T06:18:39.892Z,2.10
2022-11-18T06:20:14.182Z,1.73
2022-11-18T06:21:48.689Z,4.75
2022-11-18T06:23:22.395Z,1.83
2022-11-18T06:24:55.797Z,1.48
2022-11-18T06:26:30.633Z,1.85
2022-11-18T06:28:04.164Z,3.40
2022-11-18T06:29:37.350Z,1.38
2022-11-18T06:31:10.541Z,3.22
2022-11-18T06:32:43.865Z,4.70
2022-11-18T06:34:17.103Z,2.58
2022-11-18T06:35:49.289Z,3.08
2022-11-18T06:37:22.644Z,2.95
2022-11-18T06:38:55.852Z,2.80
2022-11-18T06:40:34.477Z,2.65
2022-11-18T06:42:09.757Z,2.45
2022-11-18T06:43:42.020Z,2.83
2022-11-18T06:45:14.560Z,4.50
2022-11-18T06:46:57.140Z,2.22
2022-11-18T06:48:29.304Z,3.25
2022-11-18T06:50:02.483Z,3.92
2022-11-18T06:51:35.723Z,4.45
2022-11-18T06:53:08.902Z,4.30
2022-11-18T06:54:42.257Z,3.97
2022-11-18T06:56:18.560Z,4.13
2022-11-18T06:57:53.116Z,4.03
2022-11-18T06:59:26.245Z,4.63
2022-11-18T07:01:09.821Z,3.63
2022-11-18T07:02:43.148Z,2.78
2022-11-18T07:04:16.266Z,4.25
2022-11-18T07:05:49.765Z,4.10
2022-11-18T07:07:22.972Z,3.15
2022-11-18T07:08:57.230Z,2.25
2022-11-18T07:10:30.462Z,1.83
2022-11-18T07:12:04.658Z,3.60
2022-11-18T07:13:43.605Z,2.85
2022-11-18T07:15:17.262Z,1.85
2022-11-18T07:16:50.455Z,2.30
2022-11-18T07:18:23.621Z,2.22
2022-11-18T07:19:56.769Z,2.70
2022-11-18T07:21:30.578Z,3.15
2022-11-18T07:23:03.752Z,2.40
2022-11-18T07:24:37.909Z,2.00
2022-11-18T07:26:12.294Z,3.83
2022-11-18T07:27:45.409Z,2.95
2022-11-18T07:29:20.034Z,2.28
2022-11-18T07:30:53.773Z,2.63
2022-11-18T07:32:27.407Z,4.90
2022-11-18T07:34:00.904Z,2.58
2022-11-18T07:35:34.478Z,2.90
2022-11-18T07:37:07.769Z,4.15
2022-11-18T07:38:41.992Z,3.60
2022-11-18T07:40:15.557Z,3.00
2022-11-18T07:41:48.811Z,4.13
2022-11-18T07:43:22.141Z,6.25
2022-11-18T07:44:56.918Z,4.82
2022-11-18T07:46:32.749Z,4.32
2022-11-18T07:48:06.504Z,2.28
2022-11-18T07:49:39.783Z,4.45
2022-11-18T07:51:14.581Z,3.53
2022-11-18T07:52:47.741Z,4.80
2022-11-18T07:54:20.861Z,4.13
2022-11-18T07:55:55.515Z,4.00
2022-11-18T07:57:28.874Z,3.00
2022-11-18T07:59:02.516Z,3.35
2022-11-18T08:00:37.204Z,4.32
2022-11-18T08:02:13.000Z,3.38
2022-11-18T08:03:47.659Z,3.70
2022-11-18T08:05:20.871Z,3.78
2022-11-18T08:06:54.093Z,4.15
2022-11-18T08:08:27.522Z,5.25
2022-11-18T08:10:03.166Z,4.75
2022-11-18T08:11:36.938Z,3.97
2022-11-18T08:13:10.239Z,2.90
2022-11-18T08:14:43.429Z,6.25
2022-11-18T08:16:21.363Z,4.10
2022-11-18T08:17:54.615Z,2.95
2022-11-18T08:19:27.900Z,3.92
2022-11-18T08:21:04.006Z,2.47
2022-11-18T08:22:37.096Z,2.55
2022-11-18T08:24:11.240Z,3.50
2022-11-18T08:25:46.772Z,3.78
2022-11-18T08:27:19.953Z,4.15
2022-11-18T08:28:54.086Z,2.75
2022-11-18T08:30:27.392Z,2.85
2022-11-18T08:32:02.303Z,3.50
2022-11-18T08:35:11.332Z,3.13
2022-11-18T08:36:44.790Z,3.30
2022-11-18T08:38:18.390Z,3.33
2022-11-18T08:39:51.575Z,2.70
2022-11-18T08:41:33.405Z,3.45
2022-11-18T08:43:06.593Z,4.57
2022-11-18T08:44:39.758Z,4.30
2022-11-18T08:46:13.216Z,2.88
2022-11-18T08:47:47.829Z,4.10
2022-11-18T08:49:21.363Z,4.38
2022-11-18T08:50:54.873Z,4.38
2022-11-18T08:52:28.299Z,5.20
2022-11-18T08:54:02.081Z,5.20
2022-11-18T08:55:35.286Z,4.43
2022-11-18T08:57:08.734Z,3.75
2022-11-18T08:58:42.189Z,5.80
2022-11-18T09:00:17.220Z,4.15
2022-11-18T09:01:50.428Z,5.25
2022-11-18T09:03:25.128Z,4.15
2022-11-18T09:04:58.306Z,3.58
2022-11-18T09:06:31.500Z,3.40
2022-11-18T09:08:05.101Z,5.68
2022-11-18T09:09:38.219Z,4.47
2022-11-18T09:11:15.715Z,5.05
2022-11-18T09:12:48.838Z,4.45
2022-11-18T09:16:15.800Z,4.93
2022-11-18T09:17:49.165Z,5.43
2022-11-18T09:19:46.336Z,5.80
2022-11-18T09:21:19.143Z,5.30
2022-11-18T09:22:52.699Z,4.15
2022-11-18T09:24:25.797Z,5.28
2022-11-18T09:25:59.992Z,5.10
2022-11-18T09:27:33.161Z,5.38
2022-11-18T09:29:06.612Z,4.03
2022-11-18T09:30:39.685Z,4.78
2022-11-18T09:32:12.869Z,5.72
2022-11-18T09:33:46.537Z,4.88
2022-11-18T09:35:21.539Z,6.18
2022-11-18T09:36:56.736Z,5.88
2022-11-18T09:38:31.372Z,6.38
2022-11-18T09:40:05.547Z,5.75
2022-11-18T09:41:46.977Z,4.72
2022-11-18T09:43:30.584Z,6.28
2022-11-18T09:45:25.486Z,7.25
2022-11-18T09:47:14.985Z,5.05
2022-11-18T09:49:07.375Z,4.78
2022-11-18T09:50:49.673Z,7.25
2022-11-18T09:52:35.587Z,5.47
2022-11-18T09:54:17.902Z,5.57
2022-11-18T09:55:53.188Z,6.40
2022-11-18T09:57:38.732Z,5.40
2022-11-18T09:59:15.092Z,5.32
2022-11-18T10:00:48.352Z,5.43
2022-11-18T10:02:32.148Z,10.93
2022-11-18T10:04:05.731Z,5.65
2022-11-18T10:05:50.764Z,4.63
2022-11-18T10:07:38.337Z,5.45
2022-11-18T10:09:34.281Z,5.50
2022-11-18T10:11:15.482Z,5.88
2022-11-18T10:12:55.243Z,5.40
2022-11-18T10:14:51.440Z,4.53
2022-11-18T10:16:42.087Z,8.73
2022-11-18T10:20:33.878Z,6.70
2022-11-18T10:24:21.357Z,5.35
2022-11-18T10:25:55.587Z,5.68
2022-11-18T10:27:38.850Z,6.10
2022-11-18T10:29:12.526Z,5.40
2022-11-18T10:30:45.987Z,5.53
2022-11-18T10:32:19.806Z,5.25
2022-11-18T10:34:00.698Z,6.00
2022-11-18T10:35:36.841Z,5.68
2022-11-18T10:37:45.379Z,6.78
2022-11-18T10:39:18.807Z,5.32
2022-11-18T10:41:01.436Z,6.28
2022-11-18T10:42:42.614Z,5.75
2022-11-18T10:44:38.638Z,4.47
2022-11-18T10:46:28.697Z,5.57
2022-11-18T10:48:10.720Z,5.38
2022-11-18T10:49:44.493Z,5.60
2022-11-18T10:51:25.841Z,5.70
2022-11-18T10:53:00.845Z,4.18
2022-11-18T10:56:12.663Z,6.25
2022-11-18T10:57:46.092Z,5.97
2022-11-18T10:59:30.922Z,3.63
2022-11-18T11:01:15.069Z,5.93
2022-11-18T11:02:48.527Z,5.15
2022-11-18T11:04:27.122Z,3.88
2022-11-18T11:06:34.983Z,5.25
2022-11-18T11:08:36.184Z,4.85
2022-11-18T11:10:23.414Z,5.88
2022-11-18T11:12:01.375Z,5.10
2022-11-18T11:13:44.127Z,4.65
2022-11-18T11:15:36.140Z,6.05
2022-11-18T11:17:13.924Z,4.35
2022-11-18T11:18:59.815Z,5.10
2022-11-18T11:20:33.148Z,3.97
2022-11-18T11:22:12.014Z,5.47
2022-11-18T11:23:47.666Z,3.63
2022-11-18T11:30:03.290Z,7.22
2022-11-18T11:31:50.918Z,7.85
2022-11-18T11:33:33.810Z,4.63
2022-11-18T11:35:19.452Z,4.13
2022-11-18T11:37:02.728Z,4.95
2022-11-18T11:39:01.306Z,4.25
2022-11-18T11:40:45.038Z,3.63
2022-11-18T11:42:35.538Z,3.85
2022-11-18T11:44:31.353Z,3.20
2022-11-18T11:46:33.414Z,5.18
2022-11-18T11:48:30.560Z,3.30
2022-11-18T11:50:16.066Z,5.28
2022-11-18T11:51:55.598Z,3.20
2022-11-18T11:54:03.543Z,4.22
2022-11-18T11:55:52.474Z,5.10
2022-11-18T11:57:44.978Z,3.92
2022-11-18T11:59:30.260Z,4.43
2022-11-18T12:01:20.103Z,4.72
2022-11-18T12:03:19.486Z,3.42
2022-11-18T12:04:55.687Z,3.72
2022-11-18T12:06:29.731Z,4.32
2022-11-18T12:08:07.229Z,4.65
2022-11-18T12:10:10.025Z,4.47
2022-11-18T12:11:54.081Z,3.83
2022-11-18T12:13:43.115Z,3.65
2022-11-18T12:15:31.271Z,3.53
2022-11-18T12:17:15.025Z,2.83
2022-11-18T12:18:58.227Z,3.88
2022-11-18T12:20:45.080Z,3.15
2022-11-18T12:22:18.323Z,3.42
2022-11-18T12:24:31.357Z,3.72
2022-11-18T12:26:10.198Z,3.10
2022-11-18T12:28:00.865Z,3.70
2022-11-18T12:30:01.552Z,4.43
2022-11-18T12:31:37.085Z,3.22
2022-11-18T12:33:18.681Z,5.32
2022-11-18T12:35:01.299Z,5.20
2022-11-18T12:36:37.282Z,3.50
2022-11-18T12:38:31.756Z,2.25
2022-11-18T12:40:05.859Z,7.03
2022-11-18T12:42:15.828Z,3.80
2022-11-18T12:44:07.489Z,3.97
2022-11-18T12:46:01.684Z,3.80
2022-11-18T12:47:59.587Z,9.40
2022-11-18T12:51:46.251Z,6.00
2022-11-18T12:53:38.921Z,5.38
2022-11-18T12:55:19.258Z,8.85
2022-11-18T12:56:52.807Z,12.18
2022-11-18T12:58:28.680Z,23.10
2022-11-18T13:00:28.406Z,9.80
2022-11-18T13:02:21.433Z,4.53
2022-11-18T13:04:08.224Z,4.88
2022-11-18T13:05:41.721Z,10.13
2022-11-18T13:07:29.494Z,6.15
2022-11-18T13:09:07.928Z,4.45
2022-11-18T13:10:54.591Z,5.35
2022-11-18T13:12:30.538Z,3.55
2022-11-18T13:14:25.870Z,5.82
2022-11-18T13:16:34.346Z,4.65
2022-11-18T13:18:18.235Z,5.05
2022-11-18T13:19:58.346Z,4.55
2022-11-18T13:21:49.288Z,3.85
2022-11-18T13:23:50.005Z,6.75
2022-11-18T13:25:28.158Z,2.85
2022-11-18T13:27:01.522Z,6.20
2022-11-18T13:28:45.009Z,2.20
2022-11-18T13:30:19.865Z,5.85
2022-11-18T13:33:40.181Z,3.33
2022-11-18T13:35:17.276Z,2.72
2022-11-18T13:36:53.910Z,5.88
2022-11-18T13:38:28.668Z,2.75
2022-11-18T13:41:36.726Z,3.17
2022-11-18T13:43:12.324Z,3.88
2022-11-18T13:44:52.492Z,4.15
2022-11-18T13:46:27.421Z,2.90
2022-11-18T13:48:09.296Z,2.97
2022-11-18T13:49:54.522Z,4.35
2022-11-18T13:51:28.199Z,3.42
2022-11-18T13:53:13.031Z,3.15
2022-11-18T13:54:47.593Z,3.55
2022-11-18T13:56:33.242Z,4.20
2022-11-18T13:58:30.778Z,2.67
2022-11-18T14:00:09.353Z,3.30
2022-11-18T14:01:46.813Z,3.35
2022-11-18T14:03:29.816Z,4.00
2022-11-18T14:05:03.304Z,3.30
2022-11-18T14:06:39.025Z,5.28
2022-11-18T14:08:28.811Z,4.38
2022-11-18T14:10:05.589Z,4.72
2022-11-18T14:11:42.519Z,3.17
2022-11-18T14:13:25.868Z,2.30
2022-11-18T14:15:24.424Z,3.00
2022-11-18T14:17:15.863Z,2.97
2022-11-18T14:18:52.704Z,2.47
2022-11-18T14:20:29.070Z,2.60
2022-11-18T14:22:11.701Z,3.90
2022-11-18T14:23:46.223Z,3.72
2022-11-18T14:25:25.297Z,4.05
2022-11-18T14:26:58.460Z,3.53
2022-11-18T14:28:34.330Z,2.88
2022-11-18T14:30:42.678Z,3.03
2022-11-18T14:32:17.565Z,2.35
2022-11-18T14:35:56.323Z,4.13
2022-11-18T14:37:31.122Z,2.33
2022-11-18T14:41:08.524Z,3.67
2022-11-18T14:42:42.275Z,2.45
2022-11-18T14:44:16.660Z,3.13
2022-11-18T14:45:49.880Z,2.90
2022-11-18T14:47:29.223Z,3.78
2022-11-18T14:49:05.349Z,2.83
2022-11-18T14:50:38.662Z,3.30
2022-11-18T14:52:11.982Z,2.60
2022-11-18T14:53:45.987Z,3.42
2022-11-18T14:55:19.127Z,4.40
2022-11-18T14:56:54.469Z,3.40
2022-11-18T14:58:27.864Z,2.47
2022-11-18T15:00:01.425Z,2.15
2022-11-18T15:01:35.003Z,3.10
2022-11-18T15:03:09.857Z,3.53
2022-11-18T15:06:18.415Z,2.70
2022-11-18T15:07:51.689Z,4.50
2022-11-18T15:09:24.807Z,1.98
2022-11-18T15:10:58.504Z,2.35
2022-11-18T15:12:32.541Z,3.00
2022-11-18T15:14:06.133Z,4.47
2022-11-18T15:15:39.293Z,4.25
2022-11-18T15:17:14.211Z,2.63
2022-11-18T15:20:24.768Z,3.38
2022-11-18T15:21:58.162Z,1.33
2022-11-18T15:23:31.529Z,4.13
2022-11-18T15:25:04.992Z,5.30
2022-11-18T15:26:42.590Z,2.80
2022-11-18T15:28:15.709Z,2.65
2022-11-18T15:29:50.447Z,3.00
2022-11-18T15:31:25.424Z,3.47
2022-11-18T15:32:58.941Z,3.42
2022-11-18T15:34:33.651Z,3.65
2022-11-18T15:36:14.084Z,2.83
2022-11-18T15:37:47.186Z,1.98
2022-11-18T15:39:20.309Z,2.55
2022-11-18T15:40:53.480Z,5.70
2022-11-18T15:42:26.645Z,2.22
2022-11-18T15:44:02.762Z,6.47
2022-11-18T15:45:35.982Z,3.40
2022-11-18T15:47:09.373Z,3.30
2022-11-18T15:48:42.768Z,4.10
2022-11-18T15:50:18.078Z,5.03
2022-11-18T15:51:52.419Z,3.40
2022-11-18T15:53:25.547Z,3.13
2022-11-18T15:54:58.746Z,3.88
2022-11-18T15:56:34.110Z,2.20
2022-11-18T15:58:07.629Z,1.70
2022-11-18T15:59:41.318Z,1.60
2022-11-18T16:01:14.746Z,4.70
2022-11-18T16:02:48.014Z,2.38
2022-11-18T16:04:22.013Z,4.70
2022-11-18T16:05:56.645Z,3.42
2022-11-18T16:07:29.794Z,3.92
2022-11-18T16:09:04.579Z,3.10
2022-11-18T16:12:46.109Z,3.25
2022-11-18T16:14:22.289Z,1.52
2022-11-18T16:15:55.121Z,2.08
2022-11-18T16:17:28.301Z,2.92
2022-11-18T16:19:05.254Z,2.33
2022-11-18T16:20:38.527Z,1.92
2022-11-18T16:22:13.053Z,2.00
2022-11-18T16:23:46.216Z,2.60
2022-11-18T16:25:19.691Z,4.32
2022-11-18T16:26:53.776Z,3.83
2022-11-18T16:28:28.465Z,5.03
2022-11-18T16:30:04.026Z,3.33
2022-11-18T16:31:46.889Z,5.00
2022-11-18T16:33:20.104Z,4.72
2022-11-18T16:35:00.005Z,2.80
2022-11-18T16:36:35.397Z,3.78
2022-11-18T16:38:10.577Z,3.10
2022-11-18T16:39:43.765Z,2.75
2022-11-18T16:41:31.124Z,3.03
2022-11-18T16:43:04.590Z,2.97
2022-11-18T16:44:38.600Z,6.28
2022-11-18T16:46:12.215Z,2.70
2022-11-18T16:47:45.718Z,3.42
2022-11-18T16:49:22.108Z,3.45
2022-11-18T16:51:20.282Z,4.60
2022-11-18T16:54:30.330Z,2.70
2022-11-18T16:56:04.498Z,4.20
2022-11-18T16:57:37.748Z,2.90
2022-11-18T16:59:15.719Z,2.83
2022-11-18T17:01:16.365Z,4.35
2022-11-18T17:02:42.606Z,4.38
2022-11-18T17:04:16.270Z,2.42
2022-11-18T17:05:50.798Z,2.45
2022-11-18T17:07:24.115Z,4.18
2022-11-18T17:08:58.926Z,3.10
2022-11-18T17:10:33.487Z,2.92
2022-11-18T17:12:08.475Z,2.38
2022-11-18T17:13:42.381Z,4.85
2022-11-18T17:15:16.048Z,3.10
2022-11-18T17:16:49.402Z,3.10
2022-11-18T17:18:22.581Z,4.63
2022-11-18T17:19:55.789Z,3.20
2022-11-18T17:21:30.371Z,4.07
2022-11-18T17:23:03.495Z,4.45
2022-11-18T17:24:37.072Z,2.92
2022-11-18T17:26:13.407Z,2.92
2022-11-18T17:27:46.628Z,3.83
2022-11-18T17:29:20.672Z,4.15
2022-11-18T17:30:54.296Z,4.07
2022-11-18T17:32:27.407Z,4.35
2022-11-18T17:34:00.721Z,3.42
2022-11-18T17:35:33.900Z,4.05
2022-11-18T17:37:07.456Z,3.33
2022-11-18T17:38:44.232Z,5.45
2022-11-18T17:40:17.940Z,3.42
2022-11-18T17:42:10.043Z,5.50
2022-11-18T17:43:43.241Z,4.47
2022-11-18T17:45:16.474Z,4.82
2022-11-18T17:46:49.964Z,3.88
2022-11-18T17:48:24.289Z,3.13
2022-11-18T17:49:57.577Z,4.22
2022-11-18T17:51:32.311Z,3.35
2022-11-18T17:53:05.556Z,6.55
2022-11-18T17:54:38.725Z,3.70
2022-11-18T17:56:12.108Z,6.75
2022-11-18T17:57:46.633Z,3.75
2022-11-18T17:59:20.523Z,4.25
2022-11-18T18:00:53.970Z,3.53
2022-11-18T18:02:27.180Z,2.67
2022-11-18T18:04:00.315Z,4.75
2022-11-18T18:05:33.984Z,3.63
2022-11-18T18:07:07.186Z,5.97
2022-11-18T18:08:41.361Z,4.43
2022-11-18T18:10:15.213Z,3.28
2022-11-18T18:11:48.545Z,5.38
2022-11-18T18:13:40.683Z,4.72
2022-11-18T18:15:13.230Z,3.40
2022-11-18T18:16:49.015Z,3.80
2022-11-18T18:18:21.212Z,3.90
2022-11-18T18:19:54.373Z,5.18
2022-11-18T18:21:28.197Z,3.45
2022-11-18T18:23:01.305Z,3.05
2022-11-18T18:24:34.711Z,2.90
2022-11-18T18:26:10.625Z,3.40
2022-11-18T18:27:43.782Z,5.47
2022-11-18T18:29:18.397Z,4.65
2022-11-18T18:30:59.196Z,4.78
2022-11-18T18:32:32.496Z,4.60
2022-11-18T18:34:06.443Z,4.53
2022-11-18T18:35:42.278Z,2.85
2022-11-18T18:37:15.611Z,3.03
2022-11-18T18:38:49.401Z,3.10
2022-11-18T18:40:22.764Z,3.75
2022-11-18T18:41:55.877Z,4.63
2022-11-18T18:43:29.076Z,6.50
2022-11-18T18:45:21.457Z,3.90
2022-11-18T18:48:29.146Z,4.82
2022-11-18T18:50:02.571Z,3.95
2022-11-18T18:51:39.857Z,3.97
2022-11-18T18:53:13.081Z,3.15
2022-11-18T18:54:49.165Z,5.60
2022-11-18T18:56:24.639Z,2.55
2022-11-18T18:57:58.159Z,4.18
2022-11-18T18:59:32.796Z,2.72
2022-11-18T19:01:09.891Z,3.70
2022-11-18T19:02:43.370Z,4.00
2022-11-18T19:04:17.355Z,3.30
2022-11-18T19:06:22.277Z,3.78
2022-11-18T19:07:44.759Z,4.05
2022-11-18T19:09:19.069Z,4.32
2022-11-18T19:10:52.580Z,2.90
2022-11-18T19:12:43.068Z,4.80
2022-11-18T19:14:19.067Z,4.78
2022-11-18T19:15:52.550Z,3.70
2022-11-18T19:17:27.154Z,4.18
2022-11-18T19:19:00.835Z,4.18
2022-11-18T19:20:36.704Z,2.90
2022-11-18T19:22:11.811Z,3.88
2022-11-18T19:23:45.008Z,4.65
2022-11-18T19:25:18.629Z,4.15
2022-11-18T19:26:52.261Z,4.50
2022-11-18T19:28:25.405Z,3.28
2022-11-18T19:30:00.727Z,2.90
2022-11-18T19:31:34.154Z,3.97
2022-11-18T19:33:09.047Z,6.28
2022-11-18T19:36:16.708Z,2.25
2022-11-18T19:37:50.167Z,4.63
2022-11-18T19:39:23.370Z,11.05
2022-11-18T19:41:00.366Z,7.55
2022-11-18T19:42:36.113Z,7.30
2022-11-18T19:44:09.538Z,8.65
2022-11-18T19:45:51.618Z,9.55
2022-11-18T19:47:25.297Z,8.13
2022-11-18T19:49:00.166Z,8.60
2022-11-18T19:52:06.712Z,9.05
2022-11-18T19:53:42.352Z,7.80
2022-11-18T19:55:15.657Z,10.25
2022-11-18T19:56:49.054Z,12.75
2022-11-18T19:58:22.436Z,10.48
2022-11-18T19:59:55.666Z,9.52
2022-11-18T20:01:30.389Z,8.35
2022-11-18T20:03:03.882Z,6.22
2022-11-18T20:04:38.820Z,6.22
2022-11-18T20:06:12.014Z,5.80
2022-11-18T20:07:45.318Z,6.28
2022-11-18T20:09:19.116Z,5.95
2022-11-18T20:10:53.501Z,4.30
2022-11-18T20:12:26.814Z,5.45
2022-11-18T20:14:00.154Z,6.22
2022-11-18T20:15:33.481Z,7.35
2022-11-18T20:17:07.156Z,5.82
2022-11-18T20:18:42.350Z,6.80
2022-11-18T20:20:17.707Z,8.98
2022-11-18T20:21:52.721Z,8.35
2022-11-18T20:23:25.956Z,11.27
2022-11-18T20:24:59.155Z,12.10
2022-11-18T20:26:34.955Z,12.80
2022-11-18T20:28:08.116Z,12.75
2022-11-18T20:29:41.383Z,15.05
2022-11-18T20:31:20.893Z,17.30
2022-11-18T20:32:54.180Z,21.38
2022-11-18T20:34:27.610Z,16.60
2022-11-18T20:36:08.344Z,17.00
2022-11-18T20:37:43.374Z,15.98
2022-11-18T20:39:17.761Z,16.63
2022-11-18T20:40:51.445Z,13.73
2022-11-18T20:42:44.046Z,13.27
2022-11-18T20:44:17.450Z,11.55
2022-11-18T20:45:55.802Z,14.00
2022-11-18T20:47:29.215Z,14.25
2022-11-18T20:49:03.199Z,11.77
2022-11-18T20:50:38.679Z,10.52
2022-11-18T20:52:13.244Z,11.63
2022-11-18T20:53:47.489Z,11.05
2022-11-18T20:55:21.292Z,14.98
2022-11-18T20:56:54.613Z,9.77
2022-11-18T20:58:27.776Z,9.88
2022-11-18T21:00:00.893Z,7.47
2022-11-18T21:01:35.854Z,6.93
2022-11-18T21:03:10.903Z,7.88
2022-11-18T21:04:44.276Z,6.82
2022-11-18T21:06:17.780Z,7.13
2022-11-18T21:07:53.353Z,8.10
2022-11-18T21:09:26.691Z,8.00
2022-11-18T21:11:03.109Z,8.50
2022-11-18T21:12:36.421Z,6.93
2022-11-18T21:14:24.053Z,7.68
2022-11-18T21:15:57.915Z,7.60
2022-11-18T21:17:31.010Z,7.80
2022-11-18T21:19:05.224Z,8.77
2022-11-18T21:20:56.005Z,9.85
2022-11-18T21:22:29.134Z,13.23
2022-11-18T21:24:05.273Z,11.57
2022-11-18T21:25:39.548Z,11.60
2022-11-18T21:27:12.946Z,10.57
2022-11-18T21:28:46.064Z,12.43
2022-11-18T21:30:19.697Z,10.10
2022-11-18T21:31:53.924Z,10.68
2022-11-18T21:33:27.148Z,12.70
2022-11-18T21:35:00.294Z,12.15
2022-11-18T21:36:34.563Z,10.95
2022-11-18T21:38:07.664Z,11.82
2022-11-18T21:39:42.182Z,11.45
2022-11-18T21:41:15.736Z,10.75
2022-11-18T21:42:48.918Z,11.52
2022-11-18T21:44:22.265Z,9.70
2022-11-18T21:45:55.401Z,9.18
2022-11-18T21:47:28.525Z,7.90
2022-11-18T21:49:02.493Z,7.15
2022-11-18T21:50:35.803Z,7.10
2022-11-18T21:52:08.933Z,7.97
2022-11-18T21:53:43.080Z,8.18
2022-11-18T21:55:17.866Z,9.35
2022-11-18T21:56:51.027Z,7.93
2022-11-18T21:58:24.182Z,8.63
2022-11-18T21:59:57.530Z,9.52
2022-11-18T22:01:33.167Z,10.38
2022-11-18T22:03:06.451Z,8.98
2022-11-18T22:04:55.856Z,7.85
2022-11-18T22:06:32.500Z,6.35
2022-11-18T22:08:07.775Z,6.78
2022-11-18T22:09:41.322Z,5.28
2022-11-18T22:11:18.424Z,4.30
2022-11-18T22:12:52.518Z,4.13
2022-11-18T22:14:25.936Z,6.47